sensor_id;sensor_type;location;lat;lon;timestamp;P1;durP1;ratioP1;P2;durP2;ratioP2
14599;SDS011;7386;45.586;12.854;2022-08-14T00:02:22;6.85;;;4.00;;
14599;SDS011;7386;45.586;12.854;2022-08-14T00:04:54;4.90;;;3.90;;
14599;SDS011;7386;45.586;12.854;2022-08-14T00:07:22;4.63;;;3.95;;
14599;SDS011;7386;45.586;12.854;2022-08-14T00:09:51;5.65;;;3.90;;
14599;SDS011;7386;45.586;12.854;2022-08-14T00:12:44;4.28;;;3.67;;
14599;SDS011;7386;45.586;12.854;2022-08-14T00:15:23;4.85;;;3.90;;
14599;SDS011;7386;45.586;12.854;2022-08-14T00:18:03;4.75;;;3.53;;
14599;SDS011;7386;45.586;12.854;2022-08-14T00:20:34;5.15;;;3.60;;
14599;SDS011;7386;45.586;12.854;2022-08-14T00:23:08;5.18;;;4.10;;
14599;SDS011;7386;45.586;12.854;2022-08-14T00:25:42;5.22;;;3.85;;
14599;SDS011;7386;45.586;12.854;2022-08-14T00:28:32;4.15;;;3.47;;
14599;SDS011;7386;45.586;12.854;2022-08-14T00:31:03;5.05;;;3.58;;
14599;SDS011;7386;45.586;12.854;2022-08-14T00:33:33;6.72;;;3.60;;
14599;SDS011;7386;45.586;12.854;2022-08-14T00:36:19;4.95;;;3.55;;
14599;SDS011;7386;45.586;12.854;2022-08-14T00:39:04;6.93;;;3.92;;
14599;SDS011;7386;45.586;12.854;2022-08-14T00:41:35;6.43;;;3.83;;
14599;SDS011;7386;45.586;12.854;2022-08-14T00:44:04;6.85;;;4.38;;
14599;SDS011;7386;45.586;12.854;2022-08-14T00:46:33;6.43;;;4.30;;
14599;SDS011;7386;45.586;12.854;2022-08-14T00:49:04;4.75;;;3.55;;
14599;SDS011;7386;45.586;12.854;2022-08-14T00:51:41;5.75;;;4.28;;
14599;SDS011;7386;45.586;12.854;2022-08-14T00:54:13;6.32;;;4.20;;
14599;SDS011;7386;45.586;12.854;2022-08-14T00:56:48;6.95;;;4.90;;
14599;SDS011;7386;45.586;12.854;2022-08-14T00:59:21;5.63;;;4.40;;
14599;SDS011;7386;45.586;12.854;2022-08-14T01:01:50;5.78;;;4.15;;
14599;SDS011;7386;45.586;12.854;2022-08-14T01:04:23;5.28;;;3.95;;
14599;SDS011;7386;45.586;12.854;2022-08-14T01:07:15;5.65;;;3.60;;
14599;SDS011;7386;45.586;12.854;2022-08-14T01:09:46;5.28;;;4.00;;
14599;SDS011;7386;45.586;12.854;2022-08-14T01:12:17;4.47;;;3.45;;
14599;SDS011;7386;45.586;12.854;2022-08-14T01:15:06;6.22;;;3.42;;
14599;SDS011;7386;45.586;12.854;2022-08-14T01:17:40;6.65;;;3.88;;
14599;SDS011;7386;45.586;12.854;2022-08-14T01:20:26;4.20;;;3.60;;
14599;SDS011;7386;45.586;12.854;2022-08-14T01:23:16;4.78;;;3.38;;
14599;SDS011;7386;45.586;12.854;2022-08-14T01:25:47;3.75;;;3.28;;
14599;SDS011;7386;45.586;12.854;2022-08-14T01:28:18;4.20;;;3.17;;
14599;SDS011;7386;45.586;12.854;2022-08-14T01:31:09;3.70;;;3.20;;
14599;SDS011;7386;45.586;12.854;2022-08-14T01:33:41;4.63;;;3.72;;
14599;SDS011;7386;45.586;12.854;2022-08-14T01:36:33;3.75;;;3.20;;
14599;SDS011;7386;45.586;12.854;2022-08-14T01:39:06;4.80;;;3.47;;
14599;SDS011;7386;45.586;12.854;2022-08-14T01:41:38;4.10;;;3.35;;
14599;SDS011;7386;45.586;12.854;2022-08-14T01:44:09;5.00;;;3.60;;
14599;SDS011;7386;45.586;12.854;2022-08-14T01:47:00;4.13;;;3.30;;
14599;SDS011;7386;45.586;12.854;2022-08-14T01:49:31;5.65;;;3.58;;
14599;SDS011;7386;45.586;12.854;2022-08-14T01:52:01;3.78;;;3.33;;
14599;SDS011;7386;45.586;12.854;2022-08-14T01:54:39;4.53;;;3.38;;
14599;SDS011;7386;45.586;12.854;2022-08-14T01:57:23;3.45;;;3.00;;
14599;SDS011;7386;45.586;12.854;2022-08-14T02:00:12;3.95;;;3.40;;
14599;SDS011;7386;45.586;12.854;2022-08-14T02:02:43;5.18;;;3.45;;
14599;SDS011;7386;45.586;12.854;2022-08-14T02:05:12;4.95;;;3.10;;
14599;SDS011;7386;45.586;12.854;2022-08-14T02:07:41;6.60;;;3.85;;
14599;SDS011;7386;45.586;12.854;2022-08-14T02:10:22;4.50;;;3.42;;
14599;SDS011;7386;45.586;12.854;2022-08-14T02:12:54;3.78;;;3.33;;
14599;SDS011;7386;45.586;12.854;2022-08-14T02:15:24;4.47;;;3.40;;
14599;SDS011;7386;45.586;12.854;2022-08-14T02:17:53;4.03;;;2.92;;
14599;SDS011;7386;45.586;12.854;2022-08-14T02:20:21;4.25;;;3.38;;
14599;SDS011;7386;45.586;12.854;2022-08-14T02:22:50;6.03;;;3.40;;
14599;SDS011;7386;45.586;12.854;2022-08-14T02:25:20;3.65;;;3.20;;
14599;SDS011;7386;45.586;12.854;2022-08-14T02:27:50;3.60;;;3.13;;
14599;SDS011;7386;45.586;12.854;2022-08-14T02:30:41;3.88;;;3.03;;
14599;SDS011;7386;45.586;12.854;2022-08-14T02:33:10;3.65;;;3.20;;
14599;SDS011;7386;45.586;12.854;2022-08-14T02:35:39;3.38;;;3.05;;
14599;SDS011;7386;45.586;12.854;2022-08-14T02:38:08;4.78;;;3.22;;
14599;SDS011;7386;45.586;12.854;2022-08-14T02:40:55;4.97;;;3.25;;
14599;SDS011;7386;45.586;12.854;2022-08-14T02:43:25;4.78;;;3.47;;
14599;SDS011;7386;45.586;12.854;2022-08-14T02:46:11;3.97;;;3.13;;
14599;SDS011;7386;45.586;12.854;2022-08-14T02:48:52;3.50;;;3.08;;
14599;SDS011;7386;45.586;12.854;2022-08-14T02:51:31;4.10;;;3.33;;
14599;SDS011;7386;45.586;12.854;2022-08-14T02:54:02;3.72;;;3.30;;
14599;SDS011;7386;45.586;12.854;2022-08-14T02:56:33;4.80;;;3.35;;
14599;SDS011;7386;45.586;12.854;2022-08-14T02:59:26;3.58;;;3.22;;
14599;SDS011;7386;45.586;12.854;2022-08-14T03:01:59;6.68;;;3.22;;
14599;SDS011;7386;45.586;12.854;2022-08-14T03:04:29;3.97;;;3.50;;
14599;SDS011;7386;45.586;12.854;2022-08-14T03:06:59;3.97;;;3.30;;
14599;SDS011;7386;45.586;12.854;2022-08-14T03:09:33;4.80;;;3.72;;
14599;SDS011;7386;45.586;12.854;2022-08-14T03:12:22;5.38;;;3.60;;
14599;SDS011;7386;45.586;12.854;2022-08-14T03:14:59;4.57;;;3.40;;
14599;SDS011;7386;45.586;12.854;2022-08-14T03:17:41;5.78;;;3.90;;
14599;SDS011;7386;45.586;12.854;2022-08-14T03:20:23;5.45;;;4.00;;
14599;SDS011;7386;45.586;12.854;2022-08-14T03:22:53;7.05;;;4.50;;
14599;SDS011;7386;45.586;12.854;2022-08-14T03:25:22;6.40;;;4.18;;
14599;SDS011;7386;45.586;12.854;2022-08-14T03:27:50;6.43;;;4.18;;
14599;SDS011;7386;45.586;12.854;2022-08-14T03:30:26;4.85;;;4.35;;
14599;SDS011;7386;45.586;12.854;2022-08-14T03:33:06;9.70;;;5.35;;
14599;SDS011;7386;45.586;12.854;2022-08-14T03:35:35;4.75;;;4.20;;
14599;SDS011;7386;45.586;12.854;2022-08-14T03:38:25;6.10;;;4.78;;
14599;SDS011;7386;45.586;12.854;2022-08-14T03:41:14;5.72;;;4.50;;
14599;SDS011;7386;45.586;12.854;2022-08-14T03:43:43;5.85;;;5.00;;
14599;SDS011;7386;45.586;12.854;2022-08-14T03:46:24;7.30;;;5.90;;
14599;SDS011;7386;45.586;12.854;2022-08-14T03:49:13;6.55;;;4.65;;
14599;SDS011;7386;45.586;12.854;2022-08-14T03:51:54;5.45;;;4.10;;
14599;SDS011;7386;45.586;12.854;2022-08-14T03:54:25;5.07;;;4.28;;
14599;SDS011;7386;45.586;12.854;2022-08-14T03:56:54;5.28;;;4.47;;
14599;SDS011;7386;45.586;12.854;2022-08-14T03:59:28;6.35;;;4.57;;
14599;SDS011;7386;45.586;12.854;2022-08-14T04:01:59;7.03;;;4.40;;
14599;SDS011;7386;45.586;12.854;2022-08-14T04:04:48;6.63;;;4.93;;
14599;SDS011;7386;45.586;12.854;2022-08-14T04:07:18;6.45;;;4.28;;
14599;SDS011;7386;45.586;12.854;2022-08-14T04:09:47;5.95;;;4.85;;
14599;SDS011;7386;45.586;12.854;2022-08-14T04:12:18;6.97;;;4.97;;
14599;SDS011;7386;45.586;12.854;2022-08-14T04:14:52;5.47;;;4.45;;
14599;SDS011;7386;45.586;12.854;2022-08-14T04:17:22;6.38;;;4.65;;
14599;SDS011;7386;45.586;12.854;2022-08-14T04:19:52;6.28;;;4.63;;
14599;SDS011;7386;45.586;12.854;2022-08-14T04:22:22;7.50;;;5.00;;
14599;SDS011;7386;45.586;12.854;2022-08-14T04:24:51;6.07;;;4.90;;
14599;SDS011;7386;45.586;12.854;2022-08-14T04:27:19;7.57;;;4.82;;
14599;SDS011;7386;45.586;12.854;2022-08-14T04:29:49;5.38;;;4.50;;
14599;SDS011;7386;45.586;12.854;2022-08-14T04:32:18;9.13;;;4.70;;
14599;SDS011;7386;45.586;12.854;2022-08-14T04:35:10;6.03;;;4.13;;
14599;SDS011;7386;45.586;12.854;2022-08-14T04:37:48;6.28;;;4.25;;
14599;SDS011;7386;45.586;12.854;2022-08-14T04:40:54;6.07;;;4.80;;
14599;SDS011;7386;45.586;12.854;2022-08-14T04:43:41;7.68;;;4.60;;
14599;SDS011;7386;45.586;12.854;2022-08-14T04:46:13;7.40;;;4.40;;
14599;SDS011;7386;45.586;12.854;2022-08-14T04:49:02;5.60;;;4.07;;
14599;SDS011;7386;45.586;12.854;2022-08-14T04:51:34;6.20;;;4.03;;
14599;SDS011;7386;45.586;12.854;2022-08-14T04:54:21;4.90;;;3.75;;
14599;SDS011;7386;45.586;12.854;2022-08-14T04:56:52;7.07;;;4.05;;
14599;SDS011;7386;45.586;12.854;2022-08-14T04:59:22;5.78;;;3.80;;
14599;SDS011;7386;45.586;12.854;2022-08-14T05:01:52;6.70;;;4.32;;
14599;SDS011;7386;45.586;12.854;2022-08-14T05:04:22;5.40;;;4.00;;
14599;SDS011;7386;45.586;12.854;2022-08-14T05:06:52;5.97;;;4.10;;
14599;SDS011;7386;45.586;12.854;2022-08-14T05:09:21;5.72;;;3.88;;
14599;SDS011;7386;45.586;12.854;2022-08-14T05:11:55;5.78;;;3.50;;
14599;SDS011;7386;45.586;12.854;2022-08-14T05:14:44;6.45;;;4.53;;
14599;SDS011;7386;45.586;12.854;2022-08-14T05:17:20;5.78;;;4.55;;
14599;SDS011;7386;45.586;12.854;2022-08-14T05:20:09;4.82;;;3.70;;
14599;SDS011;7386;45.586;12.854;2022-08-14T05:22:59;5.15;;;3.95;;
14599;SDS011;7386;45.586;12.854;2022-08-14T05:25:28;5.88;;;4.30;;
14599;SDS011;7386;45.586;12.854;2022-08-14T05:28:05;8.98;;;4.47;;
14599;SDS011;7386;45.586;12.854;2022-08-14T05:30:41;7.30;;;4.03;;
14599;SDS011;7386;45.586;12.854;2022-08-14T05:33:10;7.05;;;5.55;;
14599;SDS011;7386;45.586;12.854;2022-08-14T05:35:40;6.07;;;4.93;;
14599;SDS011;7386;45.586;12.854;2022-08-14T05:38:14;5.63;;;4.85;;
14599;SDS011;7386;45.586;12.854;2022-08-14T05:40:56;6.40;;;4.65;;
14599;SDS011;7386;45.586;12.854;2022-08-14T05:43:25;9.60;;;5.57;;
14599;SDS011;7386;45.586;12.854;2022-08-14T05:46:08;7.57;;;5.63;;
14599;SDS011;7386;45.586;12.854;2022-08-14T05:48:40;7.60;;;5.60;;
14599;SDS011;7386;45.586;12.854;2022-08-14T05:51:10;8.93;;;5.70;;
14599;SDS011;7386;45.586;12.854;2022-08-14T05:53:40;6.03;;;5.25;;
14599;SDS011;7386;45.586;12.854;2022-08-14T05:56:25;12.68;;;5.25;;
14599;SDS011;7386;45.586;12.854;2022-08-14T05:58:54;8.25;;;5.70;;
14599;SDS011;7386;45.586;12.854;2022-08-14T06:01:25;7.50;;;5.88;;
14599;SDS011;7386;45.586;12.854;2022-08-14T06:03:57;8.90;;;6.07;;
14599;SDS011;7386;45.586;12.854;2022-08-14T06:06:25;8.45;;;5.95;;
14599;SDS011;7386;45.586;12.854;2022-08-14T06:08:58;10.73;;;7.10;;
14599;SDS011;7386;45.586;12.854;2022-08-14T06:11:27;7.40;;;6.57;;
14599;SDS011;7386;45.586;12.854;2022-08-14T06:13:56;8.93;;;7.10;;
14599;SDS011;7386;45.586;12.854;2022-08-14T06:16:25;9.80;;;7.60;;
14599;SDS011;7386;45.586;12.854;2022-08-14T06:18:54;8.35;;;7.35;;
14599;SDS011;7386;45.586;12.854;2022-08-14T06:21:24;8.68;;;6.47;;
14599;SDS011;7386;45.586;12.854;2022-08-14T06:23:54;9.23;;;6.25;;
14599;SDS011;7386;45.586;12.854;2022-08-14T06:26:26;10.18;;;6.47;;
14599;SDS011;7386;45.586;12.854;2022-08-14T06:28:55;10.00;;;7.53;;
14599;SDS011;7386;45.586;12.854;2022-08-14T06:31:25;8.82;;;6.65;;
14599;SDS011;7386;45.586;12.854;2022-08-14T06:33:53;10.07;;;6.93;;
14599;SDS011;7386;45.586;12.854;2022-08-14T06:36:41;9.27;;;7.32;;
14599;SDS011;7386;45.586;12.854;2022-08-14T06:39:10;8.43;;;6.80;;
14599;SDS011;7386;45.586;12.854;2022-08-14T06:41:43;8.77;;;6.43;;
14599;SDS011;7386;45.586;12.854;2022-08-14T06:44:25;10.18;;;7.30;;
14599;SDS011;7386;45.586;12.854;2022-08-14T06:46:58;8.88;;;7.97;;
14599;SDS011;7386;45.586;12.854;2022-08-14T06:49:27;7.82;;;6.97;;
14599;SDS011;7386;45.586;12.854;2022-08-14T06:51:59;10.68;;;8.00;;
14599;SDS011;7386;45.586;12.854;2022-08-14T06:54:30;10.30;;;7.85;;
14599;SDS011;7386;45.586;12.854;2022-08-14T06:57:00;9.32;;;6.57;;
14599;SDS011;7386;45.586;12.854;2022-08-14T06:59:28;9.27;;;6.97;;
14599;SDS011;7386;45.586;12.854;2022-08-14T07:01:59;9.00;;;6.13;;
14599;SDS011;7386;45.586;12.854;2022-08-14T07:04:44;7.00;;;5.63;;
14599;SDS011;7386;45.586;12.854;2022-08-14T07:07:36;6.75;;;5.40;;
14599;SDS011;7386;45.586;12.854;2022-08-14T07:10:05;7.40;;;5.60;;
14599;SDS011;7386;45.586;12.854;2022-08-14T07:12:44;7.38;;;5.60;;
14599;SDS011;7386;45.586;12.854;2022-08-14T07:15:29;9.05;;;5.18;;
14599;SDS011;7386;45.586;12.854;2022-08-14T07:17:59;7.25;;;5.60;;
14599;SDS011;7386;45.586;12.854;2022-08-14T07:20:35;6.72;;;5.97;;
14599;SDS011;7386;45.586;12.854;2022-08-14T07:23:05;9.27;;;5.38;;
14599;SDS011;7386;45.586;12.854;2022-08-14T07:25:45;7.13;;;5.00;;
14599;SDS011;7386;45.586;12.854;2022-08-14T07:28:19;6.85;;;5.13;;
14599;SDS011;7386;45.586;12.854;2022-08-14T07:30:50;6.28;;;4.93;;
14599;SDS011;7386;45.586;12.854;2022-08-14T07:33:31;6.63;;;4.93;;
14599;SDS011;7386;45.586;12.854;2022-08-14T07:36:08;6.93;;;5.38;;
14599;SDS011;7386;45.586;12.854;2022-08-14T07:38:55;9.57;;;5.13;;
14599;SDS011;7386;45.586;12.854;2022-08-14T07:41:24;6.50;;;5.20;;
14599;SDS011;7386;45.586;12.854;2022-08-14T07:44:00;5.47;;;4.43;;
14599;SDS011;7386;45.586;12.854;2022-08-14T07:46:49;6.20;;;5.13;;
14599;SDS011;7386;45.586;12.854;2022-08-14T07:49:18;10.80;;;6.35;;
14599;SDS011;7386;45.586;12.854;2022-08-14T07:51:49;9.95;;;7.68;;
14599;SDS011;7386;45.586;12.854;2022-08-14T07:54:18;10.90;;;8.38;;
14599;SDS011;7386;45.586;12.854;2022-08-14T07:56:55;12.93;;;8.35;;
14599;SDS011;7386;45.586;12.854;2022-08-14T07:59:27;13.55;;;8.05;;
14599;SDS011;7386;45.586;12.854;2022-08-14T08:02:09;15.35;;;8.30;;
14599;SDS011;7386;45.586;12.854;2022-08-14T08:04:45;12.93;;;7.78;;
14599;SDS011;7386;45.586;12.854;2022-08-14T08:07:15;12.90;;;8.48;;
14599;SDS011;7386;45.586;12.854;2022-08-14T08:09:45;13.40;;;8.00;;
14599;SDS011;7386;45.586;12.854;2022-08-14T08:12:19;19.55;;;10.52;;
14599;SDS011;7386;45.586;12.854;2022-08-14T08:14:57;18.75;;;11.13;;
14599;SDS011;7386;45.586;12.854;2022-08-14T08:17:33;23.05;;;16.98;;
14599;SDS011;7386;45.586;12.854;2022-08-14T08:20:20;17.88;;;11.10;;
14599;SDS011;7386;45.586;12.854;2022-08-14T08:22:53;15.65;;;8.63;;
14599;SDS011;7386;45.586;12.854;2022-08-14T08:25:31;10.57;;;8.02;;
14599;SDS011;7386;45.586;12.854;2022-08-14T08:28:06;12.70;;;8.27;;
14599;SDS011;7386;45.586;12.854;2022-08-14T08:30:49;12.98;;;8.13;;
14599;SDS011;7386;45.586;12.854;2022-08-14T08:33:21;11.57;;;7.97;;
14599;SDS011;7386;45.586;12.854;2022-08-14T08:36:02;15.73;;;9.73;;
14599;SDS011;7386;45.586;12.854;2022-08-14T08:38:38;16.15;;;9.60;;
14599;SDS011;7386;45.586;12.854;2022-08-14T08:41:37;12.75;;;8.80;;
14599;SDS011;7386;45.586;12.854;2022-08-14T08:44:08;12.52;;;8.63;;
14599;SDS011;7386;45.586;12.854;2022-08-14T08:46:58;17.70;;;7.88;;
14599;SDS011;7386;45.586;12.854;2022-08-14T08:49:35;18.88;;;9.00;;
14599;SDS011;7386;45.586;12.854;2022-08-14T08:52:25;12.63;;;7.72;;
14599;SDS011;7386;45.586;12.854;2022-08-14T08:54:57;15.30;;;7.88;;
14599;SDS011;7386;45.586;12.854;2022-08-14T08:57:32;14.52;;;8.00;;
14599;SDS011;7386;45.586;12.854;2022-08-14T09:00:10;22.60;;;16.55;;
14599;SDS011;7386;45.586;12.854;2022-08-14T09:02:53;20.33;;;10.05;;
14599;SDS011;7386;45.586;12.854;2022-08-14T09:05:23;14.38;;;7.65;;
14599;SDS011;7386;45.586;12.854;2022-08-14T09:07:51;21.13;;;10.38;;
14599;SDS011;7386;45.586;12.854;2022-08-14T09:10:22;23.88;;;15.88;;
14599;SDS011;7386;45.586;12.854;2022-08-14T09:12:52;28.30;;;20.58;;
14599;SDS011;7386;45.586;12.854;2022-08-14T09:15:21;19.13;;;11.55;;
14599;SDS011;7386;45.586;12.854;2022-08-14T09:17:50;13.88;;;7.47;;
14599;SDS011;7386;45.586;12.854;2022-08-14T09:20:21;15.40;;;7.20;;
14599;SDS011;7386;45.586;12.854;2022-08-14T09:22:56;15.52;;;8.32;;
14599;SDS011;7386;45.586;12.854;2022-08-14T09:25:25;18.00;;;10.15;;
14599;SDS011;7386;45.586;12.854;2022-08-14T09:28:14;20.42;;;12.25;;
14599;SDS011;7386;45.586;12.854;2022-08-14T09:30:49;14.70;;;8.95;;
14599;SDS011;7386;45.586;12.854;2022-08-14T09:33:30;15.57;;;7.20;;
14599;SDS011;7386;45.586;12.854;2022-08-14T09:39:22;23.63;;;13.55;;
14599;SDS011;7386;45.586;12.854;2022-08-14T09:42:08;15.10;;;9.48;;
14599;SDS011;7386;45.586;12.854;2022-08-14T09:45:06;13.60;;;6.65;;
14599;SDS011;7386;45.586;12.854;2022-08-14T09:47:43;23.05;;;14.40;;
14599;SDS011;7386;45.586;12.854;2022-08-14T09:50:19;18.77;;;13.23;;
14599;SDS011;7386;45.586;12.854;2022-08-14T09:52:53;12.25;;;8.32;;
14599;SDS011;7386;45.586;12.854;2022-08-14T09:55:24;17.83;;;9.57;;
14599;SDS011;7386;45.586;12.854;2022-08-14T09:58:08;14.43;;;7.78;;
14599;SDS011;7386;45.586;12.854;2022-08-14T10:00:45;11.57;;;6.30;;
14599;SDS011;7386;45.586;12.854;2022-08-14T10:03:25;14.32;;;6.82;;
14599;SDS011;7386;45.586;12.854;2022-08-14T10:06:04;14.07;;;6.22;;
14599;SDS011;7386;45.586;12.854;2022-08-14T10:08:41;11.15;;;7.38;;
14599;SDS011;7386;45.586;12.854;2022-08-14T10:11:17;16.67;;;9.60;;
14599;SDS011;7386;45.586;12.854;2022-08-14T10:13:49;10.02;;;6.28;;
14599;SDS011;7386;45.586;12.854;2022-08-14T10:16:23;17.75;;;11.60;;
14599;SDS011;7386;45.586;12.854;2022-08-14T10:19:06;17.33;;;7.22;;
14599;SDS011;7386;45.586;12.854;2022-08-14T10:21:38;9.13;;;5.88;;
14599;SDS011;7386;45.586;12.854;2022-08-14T10:24:30;8.77;;;7.20;;
14599;SDS011;7386;45.586;12.854;2022-08-14T10:27:02;25.52;;;16.35;;
14599;SDS011;7386;45.586;12.854;2022-08-14T10:29:41;18.55;;;9.10;;
14599;SDS011;7386;45.586;12.854;2022-08-14T10:32:11;17.02;;;8.27;;
14599;SDS011;7386;45.586;12.854;2022-08-14T10:35:02;19.00;;;6.15;;
14599;SDS011;7386;45.586;12.854;2022-08-14T10:37:41;12.80;;;6.30;;
14599;SDS011;7386;45.586;12.854;2022-08-14T10:40:14;11.18;;;7.22;;
14599;SDS011;7386;45.586;12.854;2022-08-14T10:43:16;34.30;;;22.15;;
14599;SDS011;7386;45.586;12.854;2022-08-14T10:45:52;18.45;;;12.38;;
14599;SDS011;7386;45.586;12.854;2022-08-14T10:48:54;19.08;;;8.82;;
14599;SDS011;7386;45.586;12.854;2022-08-14T10:51:23;20.20;;;11.68;;
14599;SDS011;7386;45.586;12.854;2022-08-14T10:54:04;28.42;;;19.50;;
14599;SDS011;7386;45.586;12.854;2022-08-14T10:56:55;19.52;;;10.65;;
14599;SDS011;7386;45.586;12.854;2022-08-14T10:59:24;17.92;;;8.77;;
14599;SDS011;7386;45.586;12.854;2022-08-14T11:02:01;22.33;;;16.83;;
14599;SDS011;7386;45.586;12.854;2022-08-14T11:04:30;14.80;;;10.50;;
14599;SDS011;7386;45.586;12.854;2022-08-14T11:06:58;14.40;;;8.85;;
14599;SDS011;7386;45.586;12.854;2022-08-14T11:09:32;9.45;;;7.55;;
14599;SDS011;7386;45.586;12.854;2022-08-14T11:12:00;29.08;;;20.90;;
14599;SDS011;7386;45.586;12.854;2022-08-14T11:14:49;15.90;;;12.18;;
14599;SDS011;7386;45.586;12.854;2022-08-14T11:17:25;13.95;;;8.48;;
14599;SDS011;7386;45.586;12.854;2022-08-14T11:19:58;16.45;;;9.80;;
14599;SDS011;7386;45.586;12.854;2022-08-14T11:22:28;24.10;;;15.38;;
14599;SDS011;7386;45.586;12.854;2022-08-14T11:25:20;16.85;;;7.60;;
14599;SDS011;7386;45.586;12.854;2022-08-14T11:28:08;13.10;;;8.10;;
14599;SDS011;7386;45.586;12.854;2022-08-14T11:30:44;12.85;;;7.55;;
14599;SDS011;7386;45.586;12.854;2022-08-14T11:33:23;9.35;;;7.75;;
14599;SDS011;7386;45.586;12.854;2022-08-14T11:35:57;19.50;;;14.35;;
14599;SDS011;7386;45.586;12.854;2022-08-14T11:38:27;12.00;;;7.65;;
14599;SDS011;7386;45.586;12.854;2022-08-14T11:41:04;9.85;;;7.72;;
14599;SDS011;7386;45.586;12.854;2022-08-14T11:43:38;19.15;;;10.75;;
14599;SDS011;7386;45.586;12.854;2022-08-14T11:46:21;10.50;;;6.97;;
14599;SDS011;7386;45.586;12.854;2022-08-14T11:49:03;8.63;;;5.07;;
14599;SDS011;7386;45.586;12.854;2022-08-14T11:51:32;13.68;;;5.95;;
14599;SDS011;7386;45.586;12.854;2022-08-14T11:54:19;10.40;;;5.40;;
14599;SDS011;7386;45.586;12.854;2022-08-14T11:57:02;16.42;;;7.57;;
14599;SDS011;7386;45.586;12.854;2022-08-14T11:59:31;14.90;;;8.85;;
14599;SDS011;7386;45.586;12.854;2022-08-14T12:02:07;10.82;;;5.65;;
14599;SDS011;7386;45.586;12.854;2022-08-14T12:04:56;12.35;;;7.40;;
14599;SDS011;7386;45.586;12.854;2022-08-14T12:07:24;11.18;;;8.68;;
14599;SDS011;7386;45.586;12.854;2022-08-14T12:09:55;11.73;;;5.72;;
14599;SDS011;7386;45.586;12.854;2022-08-14T12:12:26;12.93;;;7.05;;
14599;SDS011;7386;45.586;12.854;2022-08-14T12:15:02;15.70;;;11.60;;
14599;SDS011;7386;45.586;12.854;2022-08-14T12:17:42;11.18;;;8.23;;
14599;SDS011;7386;45.586;12.854;2022-08-14T12:20:16;17.42;;;8.45;;
14599;SDS011;7386;45.586;12.854;2022-08-14T12:22:57;10.85;;;6.32;;
14599;SDS011;7386;45.586;12.854;2022-08-14T12:25:27;17.35;;;12.75;;
14599;SDS011;7386;45.586;12.854;2022-08-14T12:28:02;12.90;;;8.55;;
14599;SDS011;7386;45.586;12.854;2022-08-14T12:30:57;7.63;;;5.97;;
14599;SDS011;7386;45.586;12.854;2022-08-14T12:33:27;14.98;;;11.00;;
14599;SDS011;7386;45.586;12.854;2022-08-14T12:35:59;12.32;;;7.45;;
14599;SDS011;7386;45.586;12.854;2022-08-14T12:38:31;9.10;;;5.93;;
14599;SDS011;7386;45.586;12.854;2022-08-14T12:41:02;16.23;;;11.52;;
14599;SDS011;7386;45.586;12.854;2022-08-14T12:43:44;18.10;;;9.32;;
14599;SDS011;7386;45.586;12.854;2022-08-14T12:46:21;11.77;;;7.38;;
14599;SDS011;7386;45.586;12.854;2022-08-14T12:48:53;16.60;;;11.93;;
14599;SDS011;7386;45.586;12.854;2022-08-14T12:51:23;18.88;;;10.20;;
14599;SDS011;7386;45.586;12.854;2022-08-14T12:53:56;16.98;;;8.80;;
14599;SDS011;7386;45.586;12.854;2022-08-14T12:56:25;12.95;;;8.38;;
14599;SDS011;7386;45.586;12.854;2022-08-14T12:59:01;13.73;;;8.93;;
14599;SDS011;7386;45.586;12.854;2022-08-14T13:01:31;14.50;;;8.68;;
14599;SDS011;7386;45.586;12.854;2022-08-14T13:04:21;9.13;;;5.68;;
14599;SDS011;7386;45.586;12.854;2022-08-14T13:06:49;10.35;;;7.97;;
14599;SDS011;7386;45.586;12.854;2022-08-14T13:09:19;21.05;;;16.33;;
14599;SDS011;7386;45.586;12.854;2022-08-14T13:12:03;16.13;;;9.50;;
14599;SDS011;7386;45.586;12.854;2022-08-14T13:14:53;21.92;;;13.80;;
14599;SDS011;7386;45.586;12.854;2022-08-14T13:17:25;14.57;;;9.00;;
14599;SDS011;7386;45.586;12.854;2022-08-14T13:20:03;11.20;;;5.72;;
14599;SDS011;7386;45.586;12.854;2022-08-14T13:22:36;6.88;;;4.15;;
14599;SDS011;7386;45.586;12.854;2022-08-14T13:25:10;9.07;;;3.90;;
14599;SDS011;7386;45.586;12.854;2022-08-14T13:27:41;11.20;;;4.20;;
14599;SDS011;7386;45.586;12.854;2022-08-14T13:30:13;11.88;;;6.65;;
14599;SDS011;7386;45.586;12.854;2022-08-14T13:32:49;12.85;;;7.70;;
14599;SDS011;7386;45.586;12.854;2022-08-14T13:35:19;9.00;;;4.20;;
14599;SDS011;7386;45.586;12.854;2022-08-14T13:37:48;6.50;;;3.80;;
14599;SDS011;7386;45.586;12.854;2022-08-14T13:40:20;11.00;;;6.93;;
14599;SDS011;7386;45.586;12.854;2022-08-14T13:42:52;10.98;;;6.22;;
14599;SDS011;7386;45.586;12.854;2022-08-14T13:45:24;10.13;;;6.85;;
14599;SDS011;7386;45.586;12.854;2022-08-14T13:48:13;12.50;;;5.72;;
14599;SDS011;7386;45.586;12.854;2022-08-14T13:50:58;8.95;;;5.22;;
14599;SDS011;7386;45.586;12.854;2022-08-14T13:53:29;12.10;;;9.00;;
14599;SDS011;7386;45.586;12.854;2022-08-14T13:56:03;14.10;;;7.40;;
14599;SDS011;7386;45.586;12.854;2022-08-14T13:58:40;7.53;;;4.68;;
14599;SDS011;7386;45.586;12.854;2022-08-14T14:01:14;7.82;;;4.40;;
14599;SDS011;7386;45.586;12.854;2022-08-14T14:03:44;17.63;;;11.00;;
14599;SDS011;7386;45.586;12.854;2022-08-14T14:06:19;14.30;;;7.50;;
14599;SDS011;7386;45.586;12.854;2022-08-14T14:08:52;10.38;;;4.50;;
14599;SDS011;7386;45.586;12.854;2022-08-14T14:11:24;9.75;;;4.45;;
14599;SDS011;7386;45.586;12.854;2022-08-14T14:13:56;18.63;;;12.27;;
14599;SDS011;7386;45.586;12.854;2022-08-14T14:16:27;16.13;;;9.32;;
14599;SDS011;7386;45.586;12.854;2022-08-14T14:18:57;6.70;;;5.13;;
14599;SDS011;7386;45.586;12.854;2022-08-14T14:21:36;7.95;;;3.85;;
14599;SDS011;7386;45.586;12.854;2022-08-14T14:24:07;21.08;;;9.93;;
14599;SDS011;7386;45.586;12.854;2022-08-14T14:26:44;11.25;;;6.40;;
14599;SDS011;7386;45.586;12.854;2022-08-14T14:29:16;10.50;;;4.88;;
14599;SDS011;7386;45.586;12.854;2022-08-14T14:31:52;9.40;;;4.28;;
14599;SDS011;7386;45.586;12.854;2022-08-14T14:34:25;13.98;;;8.77;;
14599;SDS011;7386;45.586;12.854;2022-08-14T14:36:56;11.93;;;6.13;;
14599;SDS011;7386;45.586;12.854;2022-08-14T14:39:28;7.53;;;3.97;;
14599;SDS011;7386;45.586;12.854;2022-08-14T14:42:03;9.23;;;3.90;;
14599;SDS011;7386;45.586;12.854;2022-08-14T14:44:38;17.20;;;10.75;;
14599;SDS011;7386;45.586;12.854;2022-08-14T14:47:10;13.02;;;7.28;;
14599;SDS011;7386;45.586;12.854;2022-08-14T14:49:42;8.18;;;3.97;;
14599;SDS011;7386;45.586;12.854;2022-08-14T14:52:21;7.47;;;4.82;;
14599;SDS011;7386;45.586;12.854;2022-08-14T14:54:54;12.02;;;4.40;;
14599;SDS011;7386;45.586;12.854;2022-08-14T14:57:24;9.23;;;3.72;;
14599;SDS011;7386;45.586;12.854;2022-08-14T15:00:03;10.38;;;4.60;;
14599;SDS011;7386;45.586;12.854;2022-08-14T15:02:40;8.73;;;4.13;;
14599;SDS011;7386;45.586;12.854;2022-08-14T15:05:11;5.97;;;3.47;;
14599;SDS011;7386;45.586;12.854;2022-08-14T15:07:44;11.52;;;7.15;;
14599;SDS011;7386;45.586;12.854;2022-08-14T15:10:18;17.15;;;10.13;;
14599;SDS011;7386;45.586;12.854;2022-08-14T15:12:59;8.88;;;4.03;;
14599;SDS011;7386;45.586;12.854;2022-08-14T15:15:31;9.98;;;3.35;;
14599;SDS011;7386;45.586;12.854;2022-08-14T15:18:05;9.00;;;4.82;;
14599;SDS011;7386;45.586;12.854;2022-08-14T15:20:54;7.22;;;4.13;;
14599;SDS011;7386;45.586;12.854;2022-08-14T15:23:24;7.80;;;3.33;;
14599;SDS011;7386;45.586;12.854;2022-08-14T15:26:09;9.98;;;3.40;;
14599;SDS011;7386;45.586;12.854;2022-08-14T15:28:49;9.40;;;3.70;;
14599;SDS011;7386;45.586;12.854;2022-08-14T15:31:28;14.93;;;7.63;;
14599;SDS011;7386;45.586;12.854;2022-08-14T15:33:58;10.52;;;6.45;;
14599;SDS011;7386;45.586;12.854;2022-08-14T15:36:58;8.50;;;3.15;;